PY-0018 weather

Estancia Lomas Airport
Rosario, San Pedro Department, Paraguay

Public forecast

Using degrees Celsius for public forecast. Weather courtesy of forecast.io.

METAR (pilot weather report)

Report is more than 6 hours old.

Closest report is San Pedro Airport, 32.2 nm (59.7 km) N. Retrieved 2018/02/21 18:00 UTC (3 days ago):

SGSP 211800Z 09008KT 9999 BKN033 33/21 Q1007

TAF (pilot weather forecast)

Forecast is more than 12 hours old.

Closest forecast is Silvio Pettirossi International Airport, 42.5 nm (78.7 km) SSW. Retrieved 2018/02/18 18:12 UTC (6 days ago):

TAF SGAS 181709Z 1818/1918 07003KT 9999 -RA BKN020 TX28/1818Z TN22/1909Z BECMG 1814/1817 PROB40 1821/1900 7000 TSRA BKN020 FEW040CB BECMG 1906/1909 05010KT 5000 TSRA BKN015 FEW040CB